KIKK/IKK METAR and TAF weather

Enter ICAO airport designator
Station Type Date Time Source
KIKK METAR 2021/09/15 19:36 UTC NOAA

KIKK 151936Z AUTO 00000KT 10SM CLR 25/09 A3002 RMK AO2


Station Type Date Time Source
KIKK Decoded METAR 2021/09/15 19:36 UTC NOAA

Kankakee, Greater Kankakee Airport, IL, United States (KIKK) 41-04-17N 087-50-47W
Sep 15, 2021 - 03:36 PM EDT / 2021.09.15 1936 UTC
Wind: Calm:0
Visibility: 10 mile(s):0
Sky conditions: clear
Temperature: 77 F (25 C)
Dew Point: 48 F (9 C)
Relative Humidity: 36%
Pressure (altimeter): 30.02 in. Hg (1016 hPa)
ob: KIKK 151936Z AUTO 00000KT 10SM CLR 25/09 A3002 RMK AO2
cycle: 19

Station Type Date Time Source
KIKK TAF UTC NOAA

Error!

Example: see airport list